sensor_id;sensor_type;location;lat;lon;timestamp;temperature;humidity
37300;DHT22;23184;51.902;12.836;2024-02-28T00:00:49;4.70;99.90
37300;DHT22;23184;51.902;12.836;2024-02-28T00:03:17;4.60;99.90
37300;DHT22;23184;51.902;12.836;2024-02-28T00:05:42;4.60;99.90
37300;DHT22;23184;51.902;12.836;2024-02-28T00:08:08;4.70;99.90
37300;DHT22;23184;51.902;12.836;2024-02-28T00:10:33;4.60;99.90
37300;DHT22;23184;51.902;12.836;2024-02-28T00:12:59;4.60;99.90
37300;DHT22;23184;51.902;12.836;2024-02-28T00:15:25;4.60;99.90
37300;DHT22;23184;51.902;12.836;2024-02-28T00:17:52;4.60;99.90
37300;DHT22;23184;51.902;12.836;2024-02-28T00:20:18;4.60;99.90
37300;DHT22;23184;51.902;12.836;2024-02-28T00:22:43;4.60;99.90
37300;DHT22;23184;51.902;12.836;2024-02-28T00:25:09;4.60;99.90
37300;DHT22;23184;51.902;12.836;2024-02-28T00:27:36;4.70;99.90
37300;DHT22;23184;51.902;12.836;2024-02-28T00:30:03;4.60;99.90
37300;DHT22;23184;51.902;12.836;2024-02-28T00:32:32;4.70;99.90
37300;DHT22;23184;51.902;12.836;2024-02-28T00:34:57;4.70;99.90
37300;DHT22;23184;51.902;12.836;2024-02-28T00:37:23;4.60;99.90
37300;DHT22;23184;51.902;12.836;2024-02-28T00:39:50;4.60;99.90
37300;DHT22;23184;51.902;12.836;2024-02-28T00:42:16;4.60;99.90
37300;DHT22;23184;51.902;12.836;2024-02-28T00:44:41;4.50;99.90
37300;DHT22;23184;51.902;12.836;2024-02-28T00:47:08;4.50;99.90
37300;DHT22;23184;51.902;12.836;2024-02-28T00:49:34;4.50;99.90
37300;DHT22;23184;51.902;12.836;2024-02-28T00:52:00;4.50;99.90
37300;DHT22;23184;51.902;12.836;2024-02-28T00:54:25;4.50;99.90
37300;DHT22;23184;51.902;12.836;2024-02-28T00:56:51;4.50;99.90
37300;DHT22;23184;51.902;12.836;2024-02-28T00:59:16;4.60;99.90
37300;DHT22;23184;51.902;12.836;2024-02-28T01:01:42;4.60;99.90
37300;DHT22;23184;51.902;12.836;2024-02-28T01:04:08;4.60;99.90
37300;DHT22;23184;51.902;12.836;2024-02-28T01:06:33;4.60;99.90
37300;DHT22;23184;51.902;12.836;2024-02-28T01:08:59;4.60;99.90
37300;DHT22;23184;51.902;12.836;2024-02-28T01:11:25;4.60;99.90
37300;DHT22;23184;51.902;12.836;2024-02-28T01:13:50;4.60;99.90
37300;DHT22;23184;51.902;12.836;2024-02-28T01:16:16;4.60;99.90
37300;DHT22;23184;51.902;12.836;2024-02-28T01:18:42;4.60;99.90
37300;DHT22;23184;51.902;12.836;2024-02-28T01:21:07;4.60;99.90
37300;DHT22;23184;51.902;12.836;2024-02-28T01:23:33;4.70;99.90
37300;DHT22;23184;51.902;12.836;2024-02-28T01:25:58;4.60;99.90
37300;DHT22;23184;51.902;12.836;2024-02-28T01:28:24;4.60;99.90
37300;DHT22;23184;51.902;12.836;2024-02-28T01:30:49;4.60;99.90
37300;DHT22;23184;51.902;12.836;2024-02-28T01:33:15;4.60;99.90
37300;DHT22;23184;51.902;12.836;2024-02-28T01:35:40;4.60;99.90
37300;DHT22;23184;51.902;12.836;2024-02-28T01:38:06;4.60;99.90
37300;DHT22;23184;51.902;12.836;2024-02-28T01:40:31;4.60;99.90
37300;DHT22;23184;51.902;12.836;2024-02-28T01:43:10;4.60;99.90
37300;DHT22;23184;51.902;12.836;2024-02-28T01:45:36;4.60;99.90
37300;DHT22;23184;51.902;12.836;2024-02-28T01:48:02;4.60;99.90
37300;DHT22;23184;51.902;12.836;2024-02-28T01:50:28;4.60;99.90
37300;DHT22;23184;51.902;12.836;2024-02-28T01:52:53;4.60;99.90
37300;DHT22;23184;51.902;12.836;2024-02-28T01:55:19;4.60;99.90
37300;DHT22;23184;51.902;12.836;2024-02-28T01:57:45;4.60;99.90
37300;DHT22;23184;51.902;12.836;2024-02-28T02:00:11;4.60;99.90
37300;DHT22;23184;51.902;12.836;2024-02-28T02:02:37;4.60;99.90
37300;DHT22;23184;51.902;12.836;2024-02-28T02:05:03;4.60;99.90
37300;DHT22;23184;51.902;12.836;2024-02-28T02:07:29;4.60;99.90
37300;DHT22;23184;51.902;12.836;2024-02-28T02:09:54;4.60;99.90
37300;DHT22;23184;51.902;12.836;2024-02-28T02:12:21;4.60;99.90
37300;DHT22;23184;51.902;12.836;2024-02-28T02:14:48;4.60;99.90
37300;DHT22;23184;51.902;12.836;2024-02-28T02:17:14;4.60;99.90
37300;DHT22;23184;51.902;12.836;2024-02-28T02:19:40;4.70;99.90
37300;DHT22;23184;51.902;12.836;2024-02-28T02:22:05;4.60;99.90
37300;DHT22;23184;51.902;12.836;2024-02-28T02:24:33;4.60;99.90
37300;DHT22;23184;51.902;12.836;2024-02-28T02:26:58;4.60;99.90
37300;DHT22;23184;51.902;12.836;2024-02-28T02:29:24;4.60;99.90
37300;DHT22;23184;51.902;12.836;2024-02-28T02:31:49;4.60;99.90
37300;DHT22;23184;51.902;12.836;2024-02-28T02:34:15;4.60;99.90
37300;DHT22;23184;51.902;12.836;2024-02-28T02:36:40;4.50;99.90
37300;DHT22;23184;51.902;12.836;2024-02-28T02:39:06;4.60;99.90
37300;DHT22;23184;51.902;12.836;2024-02-28T02:41:33;4.50;99.90
37300;DHT22;23184;51.902;12.836;2024-02-28T02:43:59;4.50;99.90
37300;DHT22;23184;51.902;12.836;2024-02-28T02:46:24;4.50;99.90
37300;DHT22;23184;51.902;12.836;2024-02-28T02:48:50;4.50;99.90
37300;DHT22;23184;51.902;12.836;2024-02-28T02:51:15;4.50;99.90
37300;DHT22;23184;51.902;12.836;2024-02-28T02:53:43;4.50;99.90
37300;DHT22;23184;51.902;12.836;2024-02-28T02:56:08;4.50;99.90
37300;DHT22;23184;51.902;12.836;2024-02-28T02:58:33;4.50;99.90
37300;DHT22;23184;51.902;12.836;2024-02-28T03:00:59;4.50;99.90
37300;DHT22;23184;51.902;12.836;2024-02-28T03:03:24;4.50;99.90
37300;DHT22;23184;51.902;12.836;2024-02-28T03:05:50;4.40;99.90
37300;DHT22;23184;51.902;12.836;2024-02-28T03:08:15;4.40;99.90
37300;DHT22;23184;51.902;12.836;2024-02-28T03:10:41;4.40;99.90
37300;DHT22;23184;51.902;12.836;2024-02-28T03:13:06;4.40;99.90
37300;DHT22;23184;51.902;12.836;2024-02-28T03:15:33;4.40;99.90
37300;DHT22;23184;51.902;12.836;2024-02-28T03:17:58;4.40;99.90
37300;DHT22;23184;51.902;12.836;2024-02-28T03:20:24;4.30;99.90
37300;DHT22;23184;51.902;12.836;2024-02-28T03:22:49;4.30;99.90
37300;DHT22;23184;51.902;12.836;2024-02-28T03:25:15;4.20;99.90
37300;DHT22;23184;51.902;12.836;2024-02-28T03:27:40;4.20;99.90
37300;DHT22;23184;51.902;12.836;2024-02-28T03:30:06;4.20;99.90
37300;DHT22;23184;51.902;12.836;2024-02-28T03:32:31;4.30;99.90
37300;DHT22;23184;51.902;12.836;2024-02-28T03:34:57;4.30;99.90
37300;DHT22;23184;51.902;12.836;2024-02-28T03:37:22;4.20;99.90
37300;DHT22;23184;51.902;12.836;2024-02-28T03:39:48;4.30;99.90
37300;DHT22;23184;51.902;12.836;2024-02-28T03:42:13;4.30;99.90
37300;DHT22;23184;51.902;12.836;2024-02-28T03:44:39;4.30;99.90
37300;DHT22;23184;51.902;12.836;2024-02-28T03:47:04;4.30;99.90
37300;DHT22;23184;51.902;12.836;2024-02-28T03:49:30;4.30;99.90
37300;DHT22;23184;51.902;12.836;2024-02-28T03:51:55;4.30;99.90
37300;DHT22;23184;51.902;12.836;2024-02-28T03:54:21;4.30;99.90
37300;DHT22;23184;51.902;12.836;2024-02-28T03:56:46;4.40;99.90
37300;DHT22;23184;51.902;12.836;2024-02-28T03:59:12;4.30;99.90
37300;DHT22;23184;51.902;12.836;2024-02-28T04:01:37;4.30;99.90
37300;DHT22;23184;51.902;12.836;2024-02-28T04:04:03;4.30;99.90
37300;DHT22;23184;51.902;12.836;2024-02-28T04:06:28;4.30;99.90
37300;DHT22;23184;51.902;12.836;2024-02-28T04:08:54;4.30;99.90
37300;DHT22;23184;51.902;12.836;2024-02-28T04:11:20;4.30;99.90
37300;DHT22;23184;51.902;12.836;2024-02-28T04:13:45;4.30;99.90
37300;DHT22;23184;51.902;12.836;2024-02-28T04:16:11;4.30;99.90
37300;DHT22;23184;51.902;12.836;2024-02-28T04:18:36;4.30;99.90
37300;DHT22;23184;51.902;12.836;2024-02-28T04:21:02;4.20;99.90
37300;DHT22;23184;51.902;12.836;2024-02-28T04:23:28;4.20;99.90
37300;DHT22;23184;51.902;12.836;2024-02-28T04:25:53;4.20;99.90
37300;DHT22;23184;51.902;12.836;2024-02-28T04:28:19;4.10;99.90
37300;DHT22;23184;51.902;12.836;2024-02-28T04:30:44;4.10;99.90
37300;DHT22;23184;51.902;12.836;2024-02-28T04:33:10;4.10;99.90
37300;DHT22;23184;51.902;12.836;2024-02-28T04:35:35;4.10;99.90
37300;DHT22;23184;51.902;12.836;2024-02-28T04:38:01;4.10;99.90
37300;DHT22;23184;51.902;12.836;2024-02-28T04:40:26;4.10;99.90
37300;DHT22;23184;51.902;12.836;2024-02-28T04:42:52;4.10;99.90
37300;DHT22;23184;51.902;12.836;2024-02-28T04:45:17;4.10;99.90
37300;DHT22;23184;51.902;12.836;2024-02-28T04:47:43;4.10;99.90
37300;DHT22;23184;51.902;12.836;2024-02-28T04:50:09;4.00;99.90
37300;DHT22;23184;51.902;12.836;2024-02-28T04:52:35;4.00;99.90
37300;DHT22;23184;51.902;12.836;2024-02-28T04:55:01;4.00;99.90
37300;DHT22;23184;51.902;12.836;2024-02-28T04:57:27;4.00;99.90
37300;DHT22;23184;51.902;12.836;2024-02-28T04:59:53;3.90;99.90
37300;DHT22;23184;51.902;12.836;2024-02-28T05:02:19;3.90;99.90
37300;DHT22;23184;51.902;12.836;2024-02-28T05:04:44;3.90;99.90
37300;DHT22;23184;51.902;12.836;2024-02-28T05:07:10;4.00;99.90
37300;DHT22;23184;51.902;12.836;2024-02-28T05:09:35;3.90;99.90
37300;DHT22;23184;51.902;12.836;2024-02-28T05:12:01;4.00;99.90
37300;DHT22;23184;51.902;12.836;2024-02-28T05:14:27;4.00;99.90
37300;DHT22;23184;51.902;12.836;2024-02-28T05:16:52;3.90;99.90
37300;DHT22;23184;51.902;12.836;2024-02-28T05:19:18;3.90;99.90
37300;DHT22;23184;51.902;12.836;2024-02-28T05:21:44;3.90;99.90
37300;DHT22;23184;51.902;12.836;2024-02-28T05:24:10;3.90;99.90
37300;DHT22;23184;51.902;12.836;2024-02-28T05:26:36;3.90;99.90
37300;DHT22;23184;51.902;12.836;2024-02-28T05:29:03;3.90;99.90
37300;DHT22;23184;51.902;12.836;2024-02-28T05:31:29;4.00;99.90
37300;DHT22;23184;51.902;12.836;2024-02-28T05:33:56;3.90;99.90
37300;DHT22;23184;51.902;12.836;2024-02-28T05:36:26;3.90;99.90
37300;DHT22;23184;51.902;12.836;2024-02-28T05:38:53;3.90;99.90
37300;DHT22;23184;51.902;12.836;2024-02-28T05:41:19;3.90;99.90
37300;DHT22;23184;51.902;12.836;2024-02-28T05:43:45;3.80;99.90
37300;DHT22;23184;51.902;12.836;2024-02-28T05:46:11;3.70;99.90
37300;DHT22;23184;51.902;12.836;2024-02-28T05:48:36;3.70;99.90
37300;DHT22;23184;51.902;12.836;2024-02-28T05:51:02;3.70;99.90
37300;DHT22;23184;51.902;12.836;2024-02-28T05:53:28;3.60;99.90
37300;DHT22;23184;51.902;12.836;2024-02-28T05:55:58;3.70;99.90
37300;DHT22;23184;51.902;12.836;2024-02-28T05:58:23;3.60;99.90
37300;DHT22;23184;51.902;12.836;2024-02-28T06:00:50;3.60;99.90
37300;DHT22;23184;51.902;12.836;2024-02-28T06:03:16;3.70;99.90
37300;DHT22;23184;51.902;12.836;2024-02-28T06:05:41;3.60;99.90
37300;DHT22;23184;51.902;12.836;2024-02-28T06:08:07;3.50;99.90
37300;DHT22;23184;51.902;12.836;2024-02-28T06:10:32;3.60;99.90
37300;DHT22;23184;51.902;12.836;2024-02-28T06:12:58;3.50;99.90
37300;DHT22;23184;51.902;12.836;2024-02-28T06:15:24;3.50;99.90
37300;DHT22;23184;51.902;12.836;2024-02-28T06:17:49;3.50;99.90
37300;DHT22;23184;51.902;12.836;2024-02-28T06:20:15;3.50;99.90
37300;DHT22;23184;51.902;12.836;2024-02-28T06:22:40;3.50;99.90
37300;DHT22;23184;51.902;12.836;2024-02-28T06:25:07;3.50;99.90
37300;DHT22;23184;51.902;12.836;2024-02-28T06:27:39;3.60;99.90
37300;DHT22;23184;51.902;12.836;2024-02-28T06:30:05;3.60;99.90
37300;DHT22;23184;51.902;12.836;2024-02-28T06:32:31;3.60;99.90
37300;DHT22;23184;51.902;12.836;2024-02-28T06:34:56;3.60;99.90
37300;DHT22;23184;51.902;12.836;2024-02-28T06:37:22;3.70;99.90
37300;DHT22;23184;51.902;12.836;2024-02-28T06:39:47;3.70;99.90
37300;DHT22;23184;51.902;12.836;2024-02-28T06:42:13;3.70;99.90
37300;DHT22;23184;51.902;12.836;2024-02-28T06:44:38;3.70;99.90
37300;DHT22;23184;51.902;12.836;2024-02-28T06:47:04;3.60;99.90
37300;DHT22;23184;51.902;12.836;2024-02-28T06:49:29;3.50;99.90
37300;DHT22;23184;51.902;12.836;2024-02-28T06:51:55;3.40;99.90
37300;DHT22;23184;51.902;12.836;2024-02-28T06:54:23;3.40;99.90
37300;DHT22;23184;51.902;12.836;2024-02-28T06:56:49;3.50;99.90
37300;DHT22;23184;51.902;12.836;2024-02-28T06:59:14;3.50;99.90
37300;DHT22;23184;51.902;12.836;2024-02-28T07:01:40;3.50;99.90
37300;DHT22;23184;51.902;12.836;2024-02-28T07:04:05;3.60;99.90
37300;DHT22;23184;51.902;12.836;2024-02-28T07:06:31;3.50;99.90
37300;DHT22;23184;51.902;12.836;2024-02-28T07:08:56;3.60;99.90
37300;DHT22;23184;51.902;12.836;2024-02-28T07:11:22;3.50;99.90
37300;DHT22;23184;51.902;12.836;2024-02-28T07:13:47;3.50;99.90
37300;DHT22;23184;51.902;12.836;2024-02-28T07:16:13;3.50;99.90
37300;DHT22;23184;51.902;12.836;2024-02-28T07:18:38;3.40;99.90
37300;DHT22;23184;51.902;12.836;2024-02-28T07:21:04;3.40;99.90
37300;DHT22;23184;51.902;12.836;2024-02-28T07:23:32;3.50;99.90
37300;DHT22;23184;51.902;12.836;2024-02-28T07:25:57;3.50;99.90
37300;DHT22;23184;51.902;12.836;2024-02-28T07:28:23;3.50;99.90
37300;DHT22;23184;51.902;12.836;2024-02-28T07:30:48;3.60;99.90
37300;DHT22;23184;51.902;12.836;2024-02-28T07:33:14;3.60;99.90
37300;DHT22;23184;51.902;12.836;2024-02-28T07:35:49;3.70;99.90
37300;DHT22;23184;51.902;12.836;2024-02-28T07:38:15;3.70;99.90
37300;DHT22;23184;51.902;12.836;2024-02-28T07:40:42;3.80;99.90
37300;DHT22;23184;51.902;12.836;2024-02-28T07:43:08;3.90;99.90
37300;DHT22;23184;51.902;12.836;2024-02-28T07:45:33;3.90;99.90
37300;DHT22;23184;51.902;12.836;2024-02-28T07:47:59;3.90;99.90
37300;DHT22;23184;51.902;12.836;2024-02-28T07:50:24;4.00;99.90
37300;DHT22;23184;51.902;12.836;2024-02-28T07:52:53;4.00;99.90
37300;DHT22;23184;51.902;12.836;2024-02-28T07:55:18;4.10;99.90
37300;DHT22;23184;51.902;12.836;2024-02-28T07:57:45;4.20;99.90
37300;DHT22;23184;51.902;12.836;2024-02-28T08:00:12;4.20;99.90
37300;DHT22;23184;51.902;12.836;2024-02-28T08:02:38;4.20;99.90
37300;DHT22;23184;51.902;12.836;2024-02-28T08:05:04;4.10;99.90
37300;DHT22;23184;51.902;12.836;2024-02-28T08:07:32;4.20;99.90
37300;DHT22;23184;51.902;12.836;2024-02-28T08:09:58;4.10;99.90
37300;DHT22;23184;51.902;12.836;2024-02-28T08:12:23;4.20;99.90
37300;DHT22;23184;51.902;12.836;2024-02-28T08:14:49;4.30;99.90
37300;DHT22;23184;51.902;12.836;2024-02-28T08:17:14;4.40;99.90
37300;DHT22;23184;51.902;12.836;2024-02-28T08:19:41;4.50;99.90
37300;DHT22;23184;51.902;12.836;2024-02-28T08:22:07;4.60;99.90
37300;DHT22;23184;51.902;12.836;2024-02-28T08:24:32;4.60;99.90
37300;DHT22;23184;51.902;12.836;2024-02-28T08:26:58;4.50;99.90
37300;DHT22;23184;51.902;12.836;2024-02-28T08:29:23;4.50;99.90
37300;DHT22;23184;51.902;12.836;2024-02-28T08:31:48;4.70;99.90
37300;DHT22;23184;51.902;12.836;2024-02-28T08:34:14;4.60;99.90
37300;DHT22;23184;51.902;12.836;2024-02-28T08:36:39;4.60;99.90
37300;DHT22;23184;51.902;12.836;2024-02-28T08:39:05;4.50;99.90
37300;DHT22;23184;51.902;12.836;2024-02-28T08:41:34;4.50;99.90
37300;DHT22;23184;51.902;12.836;2024-02-28T08:43:59;4.50;99.90
37300;DHT22;23184;51.902;12.836;2024-02-28T08:46:25;4.40;99.90
37300;DHT22;23184;51.902;12.836;2024-02-28T08:48:50;4.30;99.90
37300;DHT22;23184;51.902;12.836;2024-02-28T08:51:16;4.30;99.90
37300;DHT22;23184;51.902;12.836;2024-02-28T08:53:41;4.20;99.90
37300;DHT22;23184;51.902;12.836;2024-02-28T08:56:06;4.20;99.90
37300;DHT22;23184;51.902;12.836;2024-02-28T08:58:32;4.30;99.90
37300;DHT22;23184;51.902;12.836;2024-02-28T09:00:57;4.30;99.90
37300;DHT22;23184;51.902;12.836;2024-02-28T09:03:23;4.40;99.90
37300;DHT22;23184;51.902;12.836;2024-02-28T09:05:49;4.40;99.90
37300;DHT22;23184;51.902;12.836;2024-02-28T09:08:14;4.40;99.90
37300;DHT22;23184;51.902;12.836;2024-02-28T09:10:40;4.40;99.90
37300;DHT22;23184;51.902;12.836;2024-02-28T09:13:05;4.50;99.90
37300;DHT22;23184;51.902;12.836;2024-02-28T09:15:32;4.50;99.90
37300;DHT22;23184;51.902;12.836;2024-02-28T09:17:59;4.60;99.90
37300;DHT22;23184;51.902;12.836;2024-02-28T09:20:26;4.60;99.90
37300;DHT22;23184;51.902;12.836;2024-02-28T09:22:51;4.70;99.90
37300;DHT22;23184;51.902;12.836;2024-02-28T09:25:17;4.60;99.90
37300;DHT22;23184;51.902;12.836;2024-02-28T09:27:44;4.50;99.90
37300;DHT22;23184;51.902;12.836;2024-02-28T09:30:09;4.30;99.90
37300;DHT22;23184;51.902;12.836;2024-02-28T09:32:35;4.40;99.90
37300;DHT22;23184;51.902;12.836;2024-02-28T09:35:03;4.40;99.90
37300;DHT22;23184;51.902;12.836;2024-02-28T09:37:29;4.60;99.90
37300;DHT22;23184;51.902;12.836;2024-02-28T09:39:54;4.70;99.90
37300;DHT22;23184;51.902;12.836;2024-02-28T09:42:20;4.50;99.90
37300;DHT22;23184;51.902;12.836;2024-02-28T09:44:45;4.60;99.90
37300;DHT22;23184;51.902;12.836;2024-02-28T09:47:11;5.10;99.90
37300;DHT22;23184;51.902;12.836;2024-02-28T09:49:37;5.40;99.90
37300;DHT22;23184;51.902;12.836;2024-02-28T09:52:03;5.40;99.90
37300;DHT22;23184;51.902;12.836;2024-02-28T09:54:29;5.70;99.90
37300;DHT22;23184;51.902;12.836;2024-02-28T09:56:55;6.00;99.90
37300;DHT22;23184;51.902;12.836;2024-02-28T09:59:23;6.20;99.90
37300;DHT22;23184;51.902;12.836;2024-02-28T10:01:56;5.70;99.90
37300;DHT22;23184;51.902;12.836;2024-02-28T10:04:24;5.40;99.90
37300;DHT22;23184;51.902;12.836;2024-02-28T10:06:51;5.70;99.90
37300;DHT22;23184;51.902;12.836;2024-02-28T10:09:16;5.60;99.90
37300;DHT22;23184;51.902;12.836;2024-02-28T10:11:42;5.30;99.90
37300;DHT22;23184;51.902;12.836;2024-02-28T10:14:09;5.30;99.90
37300;DHT22;23184;51.902;12.836;2024-02-28T10:16:35;5.60;99.90
37300;DHT22;23184;51.902;12.836;2024-02-28T10:19:00;6.00;99.90
37300;DHT22;23184;51.902;12.836;2024-02-28T10:21:26;6.40;99.90
37300;DHT22;23184;51.902;12.836;2024-02-28T10:23:51;7.00;99.90
37300;DHT22;23184;51.902;12.836;2024-02-28T10:26:17;7.60;99.90
37300;DHT22;23184;51.902;12.836;2024-02-28T10:28:43;7.90;99.90
37300;DHT22;23184;51.902;12.836;2024-02-28T10:31:11;7.90;99.90
37300;DHT22;23184;51.902;12.836;2024-02-28T10:33:37;7.90;99.90
37300;DHT22;23184;51.902;12.836;2024-02-28T10:36:04;7.60;99.90
37300;DHT22;23184;51.902;12.836;2024-02-28T10:38:30;7.40;99.90
37300;DHT22;23184;51.902;12.836;2024-02-28T10:41:00;7.30;99.90
37300;DHT22;23184;51.902;12.836;2024-02-28T10:43:28;7.30;99.90
37300;DHT22;23184;51.902;12.836;2024-02-28T10:46:00;7.40;99.90
37300;DHT22;23184;51.902;12.836;2024-02-28T10:48:26;7.80;99.90
37300;DHT22;23184;51.902;12.836;2024-02-28T10:50:52;8.70;99.90
37300;DHT22;23184;51.902;12.836;2024-02-28T10:53:21;9.50;99.90
37300;DHT22;23184;51.902;12.836;2024-02-28T10:55:48;10.20;99.90
37300;DHT22;23184;51.902;12.836;2024-02-28T10:58:14;10.50;99.90
37300;DHT22;23184;51.902;12.836;2024-02-28T11:00:41;9.80;99.90
37300;DHT22;23184;51.902;12.836;2024-02-28T11:03:10;9.70;99.90
37300;DHT22;23184;51.902;12.836;2024-02-28T11:05:40;9.80;99.90
37300;DHT22;23184;51.902;12.836;2024-02-28T11:08:24;9.40;99.90
37300;DHT22;23184;51.902;12.836;2024-02-28T11:11:03;9.30;99.90
37300;DHT22;23184;51.902;12.836;2024-02-28T11:13:32;8.60;99.90
37300;DHT22;23184;51.902;12.836;2024-02-28T11:16:07;8.40;99.90
37300;DHT22;23184;51.902;12.836;2024-02-28T11:18:33;7.20;99.90
37300;DHT22;23184;51.902;12.836;2024-02-28T11:20:59;7.30;99.90
37300;DHT22;23184;51.902;12.836;2024-02-28T11:23:24;7.10;99.90
37300;DHT22;23184;51.902;12.836;2024-02-28T11:25:50;7.00;99.90
37300;DHT22;23184;51.902;12.836;2024-02-28T11:28:16;7.10;99.90
37300;DHT22;23184;51.902;12.836;2024-02-28T11:30:41;6.90;99.90
37300;DHT22;23184;51.902;12.836;2024-02-28T11:33:07;7.10;99.90
37300;DHT22;23184;51.902;12.836;2024-02-28T11:35:34;7.20;99.90
37300;DHT22;23184;51.902;12.836;2024-02-28T11:38:00;7.30;99.90
37300;DHT22;23184;51.902;12.836;2024-02-28T11:40:26;7.20;99.90
37300;DHT22;23184;51.902;12.836;2024-02-28T11:42:54;7.40;99.90
37300;DHT22;23184;51.902;12.836;2024-02-28T11:45:20;7.50;99.90
37300;DHT22;23184;51.902;12.836;2024-02-28T11:47:46;7.50;99.90
37300;DHT22;23184;51.902;12.836;2024-02-28T11:50:13;7.70;99.90
37300;DHT22;23184;51.902;12.836;2024-02-28T11:52:40;7.50;99.90
37300;DHT22;23184;51.902;12.836;2024-02-28T11:55:05;7.30;99.90
37300;DHT22;23184;51.902;12.836;2024-02-28T11:57:31;7.30;99.90
37300;DHT22;23184;51.902;12.836;2024-02-28T12:00:03;7.20;99.90
37300;DHT22;23184;51.902;12.836;2024-02-28T12:02:29;7.30;99.90
37300;DHT22;23184;51.902;12.836;2024-02-28T12:05:00;7.50;99.90
37300;DHT22;23184;51.902;12.836;2024-02-28T12:07:26;7.70;99.90
37300;DHT22;23184;51.902;12.836;2024-02-28T12:09:54;7.80;99.90
37300;DHT22;23184;51.902;12.836;2024-02-28T12:12:19;7.80;99.90
37300;DHT22;23184;51.902;12.836;2024-02-28T12:14:46;7.90;99.90
37300;DHT22;23184;51.902;12.836;2024-02-28T12:17:11;8.00;99.90
37300;DHT22;23184;51.902;12.836;2024-02-28T12:19:38;8.20;99.90
37300;DHT22;23184;51.902;12.836;2024-02-28T12:22:04;8.20;99.90
37300;DHT22;23184;51.902;12.836;2024-02-28T12:24:30;8.20;99.90
37300;DHT22;23184;51.902;12.836;2024-02-28T12:26:55;8.30;99.90
37300;DHT22;23184;51.902;12.836;2024-02-28T12:29:21;8.40;99.90
37300;DHT22;23184;51.902;12.836;2024-02-28T12:31:46;8.50;99.90
37300;DHT22;23184;51.902;12.836;2024-02-28T12:34:12;8.60;99.90
37300;DHT22;23184;51.902;12.836;2024-02-28T12:36:40;8.70;99.90
37300;DHT22;23184;51.902;12.836;2024-02-28T12:39:06;8.60;99.90
37300;DHT22;23184;51.902;12.836;2024-02-28T12:41:32;8.40;99.90
37300;DHT22;23184;51.902;12.836;2024-02-28T12:43:58;7.90;99.90
37300;DHT22;23184;51.902;12.836;2024-02-28T12:46:23;7.80;99.90
37300;DHT22;23184;51.902;12.836;2024-02-28T12:48:49;7.80;99.90
37300;DHT22;23184;51.902;12.836;2024-02-28T12:51:44;8.00;99.90
37300;DHT22;23184;51.902;12.836;2024-02-28T12:54:11;8.20;99.90
37300;DHT22;23184;51.902;12.836;2024-02-28T12:56:41;8.30;99.90
37300;DHT22;23184;51.902;12.836;2024-02-28T12:59:10;8.30;99.90
37300;DHT22;23184;51.902;12.836;2024-02-28T13:01:35;8.60;99.90
37300;DHT22;23184;51.902;12.836;2024-02-28T13:04:01;8.90;99.90
37300;DHT22;23184;51.902;12.836;2024-02-28T13:06:27;9.10;99.90
37300;DHT22;23184;51.902;12.836;2024-02-28T13:08:53;9.10;99.90
37300;DHT22;23184;51.902;12.836;2024-02-28T13:11:20;9.20;99.90
37300;DHT22;23184;51.902;12.836;2024-02-28T13:13:47;8.90;99.90
37300;DHT22;23184;51.902;12.836;2024-02-28T13:16:12;8.70;99.90
37300;DHT22;23184;51.902;12.836;2024-02-28T13:18:38;8.90;99.90
37300;DHT22;23184;51.902;12.836;2024-02-28T13:21:03;9.30;99.90
37300;DHT22;23184;51.902;12.836;2024-02-28T13:23:30;9.70;99.90
37300;DHT22;23184;51.902;12.836;2024-02-28T13:25:56;10.00;99.90
37300;DHT22;23184;51.902;12.836;2024-02-28T13:28:22;10.80;99.90
37300;DHT22;23184;51.902;12.836;2024-02-28T13:31:00;10.90;99.90
37300;DHT22;23184;51.902;12.836;2024-02-28T13:33:26;9.90;99.90
37300;DHT22;23184;51.902;12.836;2024-02-28T13:35:52;10.50;99.90
37300;DHT22;23184;51.902;12.836;2024-02-28T13:38:19;10.90;99.90
37300;DHT22;23184;51.902;12.836;2024-02-28T13:40:45;11.80;99.90
37300;DHT22;23184;51.902;12.836;2024-02-28T13:43:11;13.20;99.90
37300;DHT22;23184;51.902;12.836;2024-02-28T13:45:40;12.40;99.90
37300;DHT22;23184;51.902;12.836;2024-02-28T13:48:16;12.40;99.90
37300;DHT22;23184;51.902;12.836;2024-02-28T13:50:43;13.90;99.90
37300;DHT22;23184;51.902;12.836;2024-02-28T13:53:08;14.40;99.90
37300;DHT22;23184;51.902;12.836;2024-02-28T13:55:34;12.40;99.90
37300;DHT22;23184;51.902;12.836;2024-02-28T13:57:59;12.10;99.90
37300;DHT22;23184;51.902;12.836;2024-02-28T14:00:24;12.60;99.90
37300;DHT22;23184;51.902;12.836;2024-02-28T14:02:50;11.40;99.90
37300;DHT22;23184;51.902;12.836;2024-02-28T14:05:15;11.50;99.90
37300;DHT22;23184;51.902;12.836;2024-02-28T14:07:41;12.90;99.90
37300;DHT22;23184;51.902;12.836;2024-02-28T14:10:07;11.40;99.90
37300;DHT22;23184;51.902;12.836;2024-02-28T14:12:32;12.60;99.90
37300;DHT22;23184;51.902;12.836;2024-02-28T14:14:58;12.50;99.90
37300;DHT22;23184;51.902;12.836;2024-02-28T14:17:23;10.80;99.90
37300;DHT22;23184;51.902;12.836;2024-02-28T14:19:49;11.10;99.90
37300;DHT22;23184;51.902;12.836;2024-02-28T14:22:14;10.60;99.90
37300;DHT22;23184;51.902;12.836;2024-02-28T14:24:40;11.10;99.90
37300;DHT22;23184;51.902;12.836;2024-02-28T14:27:06;11.80;99.90
37300;DHT22;23184;51.902;12.836;2024-02-28T14:29:31;12.40;99.90
37300;DHT22;23184;51.902;12.836;2024-02-28T14:31:57;11.70;99.90
37300;DHT22;23184;51.902;12.836;2024-02-28T14:34:23;10.30;99.90
37300;DHT22;23184;51.902;12.836;2024-02-28T14:36:48;10.50;99.90
37300;DHT22;23184;51.902;12.836;2024-02-28T14:39:14;10.50;99.90
37300;DHT22;23184;51.902;12.836;2024-02-28T14:41:44;11.50;99.90
37300;DHT22;23184;51.902;12.836;2024-02-28T14:44:11;11.10;99.90
37300;DHT22;23184;51.902;12.836;2024-02-28T14:46:36;10.90;99.90
37300;DHT22;23184;51.902;12.836;2024-02-28T14:49:02;10.90;99.90
37300;DHT22;23184;51.902;12.836;2024-02-28T14:51:28;10.60;99.90
37300;DHT22;23184;51.902;12.836;2024-02-28T14:53:55;10.30;99.90
37300;DHT22;23184;51.902;12.836;2024-02-28T14:56:21;10.00;99.90
37300;DHT22;23184;51.902;12.836;2024-02-28T14:58:47;10.10;99.90
37300;DHT22;23184;51.902;12.836;2024-02-28T15:01:13;10.00;99.90
37300;DHT22;23184;51.902;12.836;2024-02-28T15:03:39;10.30;99.90
37300;DHT22;23184;51.902;12.836;2024-02-28T15:06:05;10.60;99.90
37300;DHT22;23184;51.902;12.836;2024-02-28T15:08:30;10.60;99.90
37300;DHT22;23184;51.902;12.836;2024-02-28T15:10:56;10.50;99.90
37300;DHT22;23184;51.902;12.836;2024-02-28T15:13:22;10.60;99.90
37300;DHT22;23184;51.902;12.836;2024-02-28T15:15:49;10.70;99.90
37300;DHT22;23184;51.902;12.836;2024-02-28T15:18:14;10.70;99.90
37300;DHT22;23184;51.902;12.836;2024-02-28T15:20:40;10.40;99.90
37300;DHT22;23184;51.902;12.836;2024-02-28T15:23:05;10.80;99.90